sensor_id;sensor_type;location;lat;lon;timestamp;P1;durP1;ratioP1;P2;durP2;ratioP2
27225;SDS011;14732;51.074;3.788;2023-07-22T00:00:03;13.95;;;8.18;;
27225;SDS011;14732;51.074;3.788;2023-07-22T00:02:32;15.00;;;8.05;;
27225;SDS011;14732;51.074;3.788;2023-07-22T00:04:58;16.20;;;8.20;;
27225;SDS011;14732;51.074;3.788;2023-07-22T00:07:24;13.07;;;7.82;;
27225;SDS011;14732;51.074;3.788;2023-07-22T00:09:49;12.27;;;7.82;;
27225;SDS011;14732;51.074;3.788;2023-07-22T00:12:16;15.10;;;8.10;;
27225;SDS011;14732;51.074;3.788;2023-07-22T00:14:47;16.23;;;8.15;;
27225;SDS011;14732;51.074;3.788;2023-07-22T00:17:13;15.03;;;7.90;;
27225;SDS011;14732;51.074;3.788;2023-07-22T00:19:39;14.85;;;8.25;;
27225;SDS011;14732;51.074;3.788;2023-07-22T00:22:05;14.50;;;7.55;;
27225;SDS011;14732;51.074;3.788;2023-07-22T00:24:32;14.70;;;8.13;;
27225;SDS011;14732;51.074;3.788;2023-07-22T00:26:59;16.13;;;8.38;;
27225;SDS011;14732;51.074;3.788;2023-07-22T00:29:24;16.45;;;8.05;;
27225;SDS011;14732;51.074;3.788;2023-07-22T00:31:51;14.23;;;8.60;;
27225;SDS011;14732;51.074;3.788;2023-07-22T00:34:16;16.52;;;8.63;;
27225;SDS011;14732;51.074;3.788;2023-07-22T00:36:47;13.88;;;8.45;;
27225;SDS011;14732;51.074;3.788;2023-07-22T00:39:16;15.98;;;8.45;;
27225;SDS011;14732;51.074;3.788;2023-07-22T00:41:41;14.57;;;8.60;;
27225;SDS011;14732;51.074;3.788;2023-07-22T00:44:10;15.50;;;8.18;;
27225;SDS011;14732;51.074;3.788;2023-07-22T00:46:38;15.57;;;8.40;;
27225;SDS011;14732;51.074;3.788;2023-07-22T00:49:07;15.50;;;8.52;;
27225;SDS011;14732;51.074;3.788;2023-07-22T00:51:33;16.25;;;8.70;;
27225;SDS011;14732;51.074;3.788;2023-07-22T00:54:00;20.35;;;8.95;;
27225;SDS011;14732;51.074;3.788;2023-07-22T00:56:43;16.90;;;8.57;;
27225;SDS011;14732;51.074;3.788;2023-07-22T00:59:10;17.23;;;8.32;;
27225;SDS011;14732;51.074;3.788;2023-07-22T01:01:37;15.55;;;8.55;;
27225;SDS011;14732;51.074;3.788;2023-07-22T01:04:04;12.65;;;7.93;;
27225;SDS011;14732;51.074;3.788;2023-07-22T01:06:34;17.77;;;8.63;;
27225;SDS011;14732;51.074;3.788;2023-07-22T01:09:05;16.13;;;8.30;;
27225;SDS011;14732;51.074;3.788;2023-07-22T01:11:32;14.90;;;8.65;;
27225;SDS011;14732;51.074;3.788;2023-07-22T01:14:00;16.25;;;9.23;;
27225;SDS011;14732;51.074;3.788;2023-07-22T01:16:27;15.52;;;8.52;;
27225;SDS011;14732;51.074;3.788;2023-07-22T01:19:00;18.48;;;9.00;;
27225;SDS011;14732;51.074;3.788;2023-07-22T01:21:28;16.50;;;9.07;;
27225;SDS011;14732;51.074;3.788;2023-07-22T01:23:58;21.75;;;8.98;;
27225;SDS011;14732;51.074;3.788;2023-07-22T01:26:24;15.50;;;8.82;;
27225;SDS011;14732;51.074;3.788;2023-07-22T01:29:01;20.70;;;8.93;;
27225;SDS011;14732;51.074;3.788;2023-07-22T01:31:28;15.68;;;9.00;;
27225;SDS011;14732;51.074;3.788;2023-07-22T01:33:54;18.45;;;9.73;;
27225;SDS011;14732;51.074;3.788;2023-07-22T01:36:19;22.10;;;9.15;;
27225;SDS011;14732;51.074;3.788;2023-07-22T01:38:56;19.23;;;9.02;;
27225;SDS011;14732;51.074;3.788;2023-07-22T01:41:22;20.90;;;9.10;;
27225;SDS011;14732;51.074;3.788;2023-07-22T01:43:49;16.48;;;9.13;;
27225;SDS011;14732;51.074;3.788;2023-07-22T01:46:15;16.08;;;8.93;;
27225;SDS011;14732;51.074;3.788;2023-07-22T01:48:42;17.05;;;8.90;;
27225;SDS011;14732;51.074;3.788;2023-07-22T01:51:09;21.55;;;8.70;;
27225;SDS011;14732;51.074;3.788;2023-07-22T01:53:36;17.52;;;9.18;;
27225;SDS011;14732;51.074;3.788;2023-07-22T01:56:04;20.08;;;9.32;;
27225;SDS011;14732;51.074;3.788;2023-07-22T01:58:30;19.25;;;9.07;;
27225;SDS011;14732;51.074;3.788;2023-07-22T02:00:56;19.45;;;9.68;;
27225;SDS011;14732;51.074;3.788;2023-07-22T02:03:21;18.20;;;9.40;;
27225;SDS011;14732;51.074;3.788;2023-07-22T02:05:47;19.27;;;9.43;;
27225;SDS011;14732;51.074;3.788;2023-07-22T02:08:13;20.42;;;9.45;;
27225;SDS011;14732;51.074;3.788;2023-07-22T02:10:38;22.00;;;9.60;;
27225;SDS011;14732;51.074;3.788;2023-07-22T02:13:04;17.23;;;9.32;;
27225;SDS011;14732;51.074;3.788;2023-07-22T02:15:31;23.13;;;9.75;;
27225;SDS011;14732;51.074;3.788;2023-07-22T02:17:57;18.50;;;9.65;;
27225;SDS011;14732;51.074;3.788;2023-07-22T02:20:23;20.00;;;9.73;;
27225;SDS011;14732;51.074;3.788;2023-07-22T02:22:51;19.55;;;10.07;;
27225;SDS011;14732;51.074;3.788;2023-07-22T02:25:17;21.33;;;10.23;;
27225;SDS011;14732;51.074;3.788;2023-07-22T02:27:43;19.23;;;9.70;;
27225;SDS011;14732;51.074;3.788;2023-07-22T02:30:09;19.25;;;9.75;;
27225;SDS011;14732;51.074;3.788;2023-07-22T02:32:36;21.20;;;9.27;;
27225;SDS011;14732;51.074;3.788;2023-07-22T02:35:04;19.30;;;9.97;;
27225;SDS011;14732;51.074;3.788;2023-07-22T02:37:30;16.80;;;9.82;;
27225;SDS011;14732;51.074;3.788;2023-07-22T02:39:56;19.80;;;10.23;;
27225;SDS011;14732;51.074;3.788;2023-07-22T02:42:22;20.85;;;10.65;;
27225;SDS011;14732;51.074;3.788;2023-07-22T02:44:47;21.83;;;10.57;;
27225;SDS011;14732;51.074;3.788;2023-07-22T02:47:13;19.85;;;10.40;;
27225;SDS011;14732;51.074;3.788;2023-07-22T02:49:44;20.60;;;10.13;;
27225;SDS011;14732;51.074;3.788;2023-07-22T02:52:13;21.35;;;10.40;;
27225;SDS011;14732;51.074;3.788;2023-07-22T02:54:54;23.27;;;10.13;;
27225;SDS011;14732;51.074;3.788;2023-07-22T02:58:05;22.38;;;10.05;;
27225;SDS011;14732;51.074;3.788;2023-07-22T03:00:31;22.30;;;10.40;;
27225;SDS011;14732;51.074;3.788;2023-07-22T03:02:58;22.73;;;10.68;;
27225;SDS011;14732;51.074;3.788;2023-07-22T03:05:29;23.95;;;10.15;;
27225;SDS011;14732;51.074;3.788;2023-07-22T03:07:59;22.35;;;10.65;;
27225;SDS011;14732;51.074;3.788;2023-07-22T03:10:28;23.33;;;10.27;;
27225;SDS011;14732;51.074;3.788;2023-07-22T03:12:55;21.75;;;10.82;;
27225;SDS011;14732;51.074;3.788;2023-07-22T03:15:21;21.98;;;10.27;;
27225;SDS011;14732;51.074;3.788;2023-07-22T03:17:51;24.77;;;10.63;;
27225;SDS011;14732;51.074;3.788;2023-07-22T03:20:21;20.70;;;10.68;;
27225;SDS011;14732;51.074;3.788;2023-07-22T03:22:50;22.73;;;10.60;;
27225;SDS011;14732;51.074;3.788;2023-07-22T03:25:19;25.83;;;10.93;;
27225;SDS011;14732;51.074;3.788;2023-07-22T03:27:46;21.63;;;10.15;;
27225;SDS011;14732;51.074;3.788;2023-07-22T03:30:13;23.15;;;10.40;;
27225;SDS011;14732;51.074;3.788;2023-07-22T03:32:44;19.65;;;10.00;;
27225;SDS011;14732;51.074;3.788;2023-07-22T03:35:25;21.75;;;10.45;;
27225;SDS011;14732;51.074;3.788;2023-07-22T03:37:53;23.63;;;9.85;;
27225;SDS011;14732;51.074;3.788;2023-07-22T03:40:20;20.23;;;10.50;;
27225;SDS011;14732;51.074;3.788;2023-07-22T03:42:50;20.90;;;9.57;;
27225;SDS011;14732;51.074;3.788;2023-07-22T03:45:21;21.88;;;9.90;;
27225;SDS011;14732;51.074;3.788;2023-07-22T03:47:57;19.40;;;10.52;;
27225;SDS011;14732;51.074;3.788;2023-07-22T03:50:34;26.00;;;10.75;;
27225;SDS011;14732;51.074;3.788;2023-07-22T03:53:01;21.20;;;10.02;;
27225;SDS011;14732;51.074;3.788;2023-07-22T03:55:29;23.98;;;9.60;;
27225;SDS011;14732;51.074;3.788;2023-07-22T03:57:56;18.50;;;9.65;;
27225;SDS011;14732;51.074;3.788;2023-07-22T04:00:24;18.88;;;9.93;;
27225;SDS011;14732;51.074;3.788;2023-07-22T04:02:50;20.02;;;9.90;;
27225;SDS011;14732;51.074;3.788;2023-07-22T04:05:16;22.60;;;9.77;;
27225;SDS011;14732;51.074;3.788;2023-07-22T04:07:43;21.77;;;9.82;;
27225;SDS011;14732;51.074;3.788;2023-07-22T04:10:11;26.38;;;10.20;;
27225;SDS011;14732;51.074;3.788;2023-07-22T04:12:37;17.02;;;9.57;;
27225;SDS011;14732;51.074;3.788;2023-07-22T04:15:14;22.05;;;9.70;;
27225;SDS011;14732;51.074;3.788;2023-07-22T04:17:42;18.63;;;9.85;;
27225;SDS011;14732;51.074;3.788;2023-07-22T04:20:09;19.73;;;9.85;;
27225;SDS011;14732;51.074;3.788;2023-07-22T04:22:39;23.33;;;9.65;;
27225;SDS011;14732;51.074;3.788;2023-07-22T04:25:09;19.35;;;9.60;;
27225;SDS011;14732;51.074;3.788;2023-07-22T04:27:35;24.38;;;10.82;;
27225;SDS011;14732;51.074;3.788;2023-07-22T04:30:01;27.95;;;9.82;;
27225;SDS011;14732;51.074;3.788;2023-07-22T04:32:28;22.92;;;9.77;;
27225;SDS011;14732;51.074;3.788;2023-07-22T04:34:56;18.65;;;9.25;;
27225;SDS011;14732;51.074;3.788;2023-07-22T04:37:23;24.35;;;9.75;;
27225;SDS011;14732;51.074;3.788;2023-07-22T04:39:50;20.90;;;9.45;;
27225;SDS011;14732;51.074;3.788;2023-07-22T04:42:25;16.85;;;9.32;;
27225;SDS011;14732;51.074;3.788;2023-07-22T04:44:52;17.35;;;9.70;;
27225;SDS011;14732;51.074;3.788;2023-07-22T04:47:18;20.45;;;9.45;;
27225;SDS011;14732;51.074;3.788;2023-07-22T04:49:45;18.90;;;9.10;;
27225;SDS011;14732;51.074;3.788;2023-07-22T04:52:12;18.83;;;9.35;;
27225;SDS011;14732;51.074;3.788;2023-07-22T04:54:42;27.38;;;9.43;;
27225;SDS011;14732;51.074;3.788;2023-07-22T04:57:09;21.98;;;9.57;;
27225;SDS011;14732;51.074;3.788;2023-07-22T04:59:37;17.08;;;9.43;;
27225;SDS011;14732;51.074;3.788;2023-07-22T05:02:09;26.65;;;9.95;;
27225;SDS011;14732;51.074;3.788;2023-07-22T05:04:36;16.77;;;8.63;;
27225;SDS011;14732;51.074;3.788;2023-07-22T05:07:05;17.30;;;8.13;;
27225;SDS011;14732;51.074;3.788;2023-07-22T05:09:36;20.83;;;8.65;;
27225;SDS011;14732;51.074;3.788;2023-07-22T05:12:03;19.42;;;8.60;;
27225;SDS011;14732;51.074;3.788;2023-07-22T05:14:29;17.05;;;8.38;;
27225;SDS011;14732;51.074;3.788;2023-07-22T05:16:55;18.25;;;8.60;;
27225;SDS011;14732;51.074;3.788;2023-07-22T05:19:20;16.05;;;8.00;;
27225;SDS011;14732;51.074;3.788;2023-07-22T05:21:46;17.27;;;7.93;;
27225;SDS011;14732;51.074;3.788;2023-07-22T05:24:11;19.23;;;8.43;;
27225;SDS011;14732;51.074;3.788;2023-07-22T05:26:37;18.50;;;8.13;;
27225;SDS011;14732;51.074;3.788;2023-07-22T05:29:03;15.88;;;7.75;;
27225;SDS011;14732;51.074;3.788;2023-07-22T05:31:28;19.52;;;7.47;;
27225;SDS011;14732;51.074;3.788;2023-07-22T05:33:54;19.95;;;7.93;;
27225;SDS011;14732;51.074;3.788;2023-07-22T05:36:20;15.40;;;7.18;;
27225;SDS011;14732;51.074;3.788;2023-07-22T05:38:46;16.88;;;7.53;;
27225;SDS011;14732;51.074;3.788;2023-07-22T05:41:12;15.48;;;6.70;;
27225;SDS011;14732;51.074;3.788;2023-07-22T05:43:38;15.55;;;6.82;;
27225;SDS011;14732;51.074;3.788;2023-07-22T05:46:03;18.48;;;6.80;;
27225;SDS011;14732;51.074;3.788;2023-07-22T05:48:29;12.85;;;6.35;;
27225;SDS011;14732;51.074;3.788;2023-07-22T05:50:54;19.65;;;6.20;;
27225;SDS011;14732;51.074;3.788;2023-07-22T05:53:20;17.38;;;7.13;;
27225;SDS011;14732;51.074;3.788;2023-07-22T05:55:46;16.15;;;6.00;;
27225;SDS011;14732;51.074;3.788;2023-07-22T05:58:15;12.90;;;6.15;;
27225;SDS011;14732;51.074;3.788;2023-07-22T06:00:42;16.10;;;6.07;;
27225;SDS011;14732;51.074;3.788;2023-07-22T06:03:08;13.48;;;5.80;;
27225;SDS011;14732;51.074;3.788;2023-07-22T06:05:35;13.75;;;5.65;;
27225;SDS011;14732;51.074;3.788;2023-07-22T06:08:06;13.75;;;5.50;;
27225;SDS011;14732;51.074;3.788;2023-07-22T06:10:42;11.02;;;5.65;;
27225;SDS011;14732;51.074;3.788;2023-07-22T06:13:15;10.68;;;5.13;;
27225;SDS011;14732;51.074;3.788;2023-07-22T06:15:41;13.63;;;5.53;;
27225;SDS011;14732;51.074;3.788;2023-07-22T06:18:10;10.88;;;5.13;;
27225;SDS011;14732;51.074;3.788;2023-07-22T06:20:39;8.40;;;5.18;;
27225;SDS011;14732;51.074;3.788;2023-07-22T06:23:05;13.38;;;5.20;;
27225;SDS011;14732;51.074;3.788;2023-07-22T06:25:33;16.20;;;5.75;;
27225;SDS011;14732;51.074;3.788;2023-07-22T06:28:04;13.18;;;5.47;;
27225;SDS011;14732;51.074;3.788;2023-07-22T06:30:30;13.57;;;5.50;;
27225;SDS011;14732;51.074;3.788;2023-07-22T06:32:58;11.75;;;4.72;;
27225;SDS011;14732;51.074;3.788;2023-07-22T06:35:24;13.05;;;5.60;;
27225;SDS011;14732;51.074;3.788;2023-07-22T06:37:53;11.82;;;5.50;;
27225;SDS011;14732;51.074;3.788;2023-07-22T06:40:19;11.57;;;5.32;;
27225;SDS011;14732;51.074;3.788;2023-07-22T06:42:48;13.48;;;5.85;;
27225;SDS011;14732;51.074;3.788;2023-07-22T06:45:16;10.23;;;5.20;;
27225;SDS011;14732;51.074;3.788;2023-07-22T06:47:44;14.05;;;5.72;;
27225;SDS011;14732;51.074;3.788;2023-07-22T06:50:12;12.40;;;5.70;;
27225;SDS011;14732;51.074;3.788;2023-07-22T06:52:43;13.55;;;5.47;;
27225;SDS011;14732;51.074;3.788;2023-07-22T06:55:13;12.05;;;5.07;;
27225;SDS011;14732;51.074;3.788;2023-07-22T06:57:43;11.20;;;4.88;;
27225;SDS011;14732;51.074;3.788;2023-07-22T07:02:40;13.10;;;4.93;;
27225;SDS011;14732;51.074;3.788;2023-07-22T07:05:09;11.48;;;5.13;;
27225;SDS011;14732;51.074;3.788;2023-07-22T07:07:36;15.13;;;5.03;;
27225;SDS011;14732;51.074;3.788;2023-07-22T07:10:01;10.88;;;5.13;;
27225;SDS011;14732;51.074;3.788;2023-07-22T07:12:28;14.45;;;5.43;;
27225;SDS011;14732;51.074;3.788;2023-07-22T07:14:55;13.80;;;5.82;;
27225;SDS011;14732;51.074;3.788;2023-07-22T07:17:21;10.70;;;5.35;;
27225;SDS011;14732;51.074;3.788;2023-07-22T07:19:47;13.55;;;4.63;;
27225;SDS011;14732;51.074;3.788;2023-07-22T07:22:15;12.07;;;4.53;;
27225;SDS011;14732;51.074;3.788;2023-07-22T07:24:46;11.70;;;5.07;;
27225;SDS011;14732;51.074;3.788;2023-07-22T07:27:44;15.85;;;4.90;;
27225;SDS011;14732;51.074;3.788;2023-07-22T07:30:12;13.97;;;4.60;;
27225;SDS011;14732;51.074;3.788;2023-07-22T07:32:38;9.05;;;4.30;;
27225;SDS011;14732;51.074;3.788;2023-07-22T07:35:04;8.75;;;4.80;;
27225;SDS011;14732;51.074;3.788;2023-07-22T07:37:32;10.05;;;4.97;;
27225;SDS011;14732;51.074;3.788;2023-07-22T07:40:00;9.05;;;4.32;;
27225;SDS011;14732;51.074;3.788;2023-07-22T07:42:34;11.18;;;4.38;;
27225;SDS011;14732;51.074;3.788;2023-07-22T07:45:00;11.57;;;4.53;;
27225;SDS011;14732;51.074;3.788;2023-07-22T07:47:26;9.00;;;4.43;;
27225;SDS011;14732;51.074;3.788;2023-07-22T07:49:52;11.65;;;5.05;;
27225;SDS011;14732;51.074;3.788;2023-07-22T07:52:22;8.38;;;4.75;;
27225;SDS011;14732;51.074;3.788;2023-07-22T07:55:00;13.38;;;5.53;;
27225;SDS011;14732;51.074;3.788;2023-07-22T07:57:26;11.27;;;4.55;;
27225;SDS011;14732;51.074;3.788;2023-07-22T07:59:53;9.05;;;4.28;;
27225;SDS011;14732;51.074;3.788;2023-07-22T08:02:19;7.78;;;3.95;;
27225;SDS011;14732;51.074;3.788;2023-07-22T08:04:46;11.95;;;4.50;;
27225;SDS011;14732;51.074;3.788;2023-07-22T08:07:14;12.20;;;4.75;;
27225;SDS011;14732;51.074;3.788;2023-07-22T08:12:08;9.30;;;4.88;;
27225;SDS011;14732;51.074;3.788;2023-07-22T08:14:38;7.22;;;4.00;;
27225;SDS011;14732;51.074;3.788;2023-07-22T08:17:05;9.55;;;4.20;;
27225;SDS011;14732;51.074;3.788;2023-07-22T08:19:36;10.07;;;4.95;;
27225;SDS011;14732;51.074;3.788;2023-07-22T08:22:06;10.18;;;4.32;;
27225;SDS011;14732;51.074;3.788;2023-07-22T08:24:37;10.77;;;4.70;;
27225;SDS011;14732;51.074;3.788;2023-07-22T08:27:03;9.13;;;3.60;;
27225;SDS011;14732;51.074;3.788;2023-07-22T08:29:28;8.40;;;4.80;;
27225;SDS011;14732;51.074;3.788;2023-07-22T08:31:54;11.98;;;4.47;;
27225;SDS011;14732;51.074;3.788;2023-07-22T08:34:20;11.80;;;4.90;;
27225;SDS011;14732;51.074;3.788;2023-07-22T08:36:46;13.43;;;4.57;;
27225;SDS011;14732;51.074;3.788;2023-07-22T08:39:12;9.15;;;4.20;;
27225;SDS011;14732;51.074;3.788;2023-07-22T08:41:38;8.15;;;3.95;;
27225;SDS011;14732;51.074;3.788;2023-07-22T08:44:05;11.45;;;4.53;;
27225;SDS011;14732;51.074;3.788;2023-07-22T08:46:34;8.20;;;4.03;;
27225;SDS011;14732;51.074;3.788;2023-07-22T08:49:01;9.05;;;3.88;;
27225;SDS011;14732;51.074;3.788;2023-07-22T08:51:30;9.55;;;3.45;;
27225;SDS011;14732;51.074;3.788;2023-07-22T08:53:57;8.65;;;3.42;;
27225;SDS011;14732;51.074;3.788;2023-07-22T08:56:24;7.95;;;3.40;;
27225;SDS011;14732;51.074;3.788;2023-07-22T08:58:51;6.65;;;3.42;;
27225;SDS011;14732;51.074;3.788;2023-07-22T09:01:17;5.35;;;3.30;;
27225;SDS011;14732;51.074;3.788;2023-07-22T09:03:43;5.20;;;3.25;;
27225;SDS011;14732;51.074;3.788;2023-07-22T09:06:12;8.40;;;3.63;;
27225;SDS011;14732;51.074;3.788;2023-07-22T09:08:38;6.07;;;3.25;;
27225;SDS011;14732;51.074;3.788;2023-07-22T09:11:05;8.38;;;3.17;;
27225;SDS011;14732;51.074;3.788;2023-07-22T09:13:31;8.65;;;3.10;;
27225;SDS011;14732;51.074;3.788;2023-07-22T09:16:00;6.57;;;2.97;;
27225;SDS011;14732;51.074;3.788;2023-07-22T09:18:27;8.23;;;2.80;;
27225;SDS011;14732;51.074;3.788;2023-07-22T09:20:53;10.20;;;3.05;;
27225;SDS011;14732;51.074;3.788;2023-07-22T09:23:31;6.53;;;2.80;;
27225;SDS011;14732;51.074;3.788;2023-07-22T09:26:10;5.53;;;2.83;;
27225;SDS011;14732;51.074;3.788;2023-07-22T09:28:54;6.25;;;2.78;;
27225;SDS011;14732;51.074;3.788;2023-07-22T09:31:50;5.82;;;2.70;;
27225;SDS011;14732;51.074;3.788;2023-07-22T09:34:19;6.72;;;2.60;;
27225;SDS011;14732;51.074;3.788;2023-07-22T09:36:55;4.30;;;2.30;;
27225;SDS011;14732;51.074;3.788;2023-07-22T09:39:32;5.40;;;2.22;;
27225;SDS011;14732;51.074;3.788;2023-07-22T09:42:00;6.20;;;2.55;;
27225;SDS011;14732;51.074;3.788;2023-07-22T09:44:29;6.88;;;2.70;;
27225;SDS011;14732;51.074;3.788;2023-07-22T09:47:03;6.93;;;2.08;;
27225;SDS011;14732;51.074;3.788;2023-07-22T09:49:39;5.40;;;2.10;;
27225;SDS011;14732;51.074;3.788;2023-07-22T09:52:10;5.20;;;2.00;;
27225;SDS011;14732;51.074;3.788;2023-07-22T09:54:42;5.55;;;1.60;;
27225;SDS011;14732;51.074;3.788;2023-07-22T09:57:18;2.97;;;1.63;;
27225;SDS011;14732;51.074;3.788;2023-07-22T09:59:54;6.53;;;1.60;;
27225;SDS011;14732;51.074;3.788;2023-07-22T10:02:22;3.75;;;1.55;;
27225;SDS011;14732;51.074;3.788;2023-07-22T10:04:53;3.55;;;1.60;;
27225;SDS011;14732;51.074;3.788;2023-07-22T10:07:23;4.25;;;2.28;;
27225;SDS011;14732;51.074;3.788;2023-07-22T10:09:51;3.95;;;1.60;;
27225;SDS011;14732;51.074;3.788;2023-07-22T10:12:25;3.08;;;1.30;;
27225;SDS011;14732;51.074;3.788;2023-07-22T10:14:53;5.65;;;1.88;;
27225;SDS011;14732;51.074;3.788;2023-07-22T10:17:22;2.50;;;1.27;;
27225;SDS011;14732;51.074;3.788;2023-07-22T10:19:48;6.57;;;1.50;;
27225;SDS011;14732;51.074;3.788;2023-07-22T10:22:19;4.90;;;1.27;;
27225;SDS011;14732;51.074;3.788;2023-07-22T10:24:47;2.50;;;1.10;;
27225;SDS011;14732;51.074;3.788;2023-07-22T10:27:23;2.55;;;1.25;;
27225;SDS011;14732;51.074;3.788;2023-07-22T10:29:53;3.50;;;0.90;;
27225;SDS011;14732;51.074;3.788;2023-07-22T10:32:24;1.70;;;1.20;;
27225;SDS011;14732;51.074;3.788;2023-07-22T10:34:56;1.42;;;0.93;;
27225;SDS011;14732;51.074;3.788;2023-07-22T10:37:31;4.03;;;1.10;;
27225;SDS011;14732;51.074;3.788;2023-07-22T10:45:30;3.25;;;1.00;;
27225;SDS011;14732;51.074;3.788;2023-07-22T10:48:02;5.07;;;1.25;;
27225;SDS011;14732;51.074;3.788;2023-07-22T10:50:45;2.92;;;1.23;;
27225;SDS011;14732;51.074;3.788;2023-07-22T10:53:20;1.55;;;1.20;;
27225;SDS011;14732;51.074;3.788;2023-07-22T11:11:52;2.10;;;1.40;;
27225;SDS011;14732;51.074;3.788;2023-07-22T11:14:23;2.50;;;1.15;;
27225;SDS011;14732;51.074;3.788;2023-07-22T11:16:56;6.88;;;1.15;;
27225;SDS011;14732;51.074;3.788;2023-07-22T11:19:26;6.32;;;1.35;;
27225;SDS011;14732;51.074;3.788;2023-07-22T11:21:54;1.98;;;1.10;;
27225;SDS011;14732;51.074;3.788;2023-07-22T11:24:23;3.58;;;1.35;;
27225;SDS011;14732;51.074;3.788;2023-07-22T11:26:54;1.83;;;1.13;;
27225;SDS011;14732;51.074;3.788;2023-07-22T11:29:31;4.03;;;1.25;;
27225;SDS011;14732;51.074;3.788;2023-07-22T11:32:02;3.08;;;1.40;;
27225;SDS011;14732;51.074;3.788;2023-07-22T11:34:31;5.95;;;1.30;;
27225;SDS011;14732;51.074;3.788;2023-07-22T11:37:02;2.08;;;1.20;;
27225;SDS011;14732;51.074;3.788;2023-07-22T11:39:28;2.83;;;1.20;;
27225;SDS011;14732;51.074;3.788;2023-07-22T11:41:57;1.90;;;1.20;;
27225;SDS011;14732;51.074;3.788;2023-07-22T11:44:26;8.25;;;1.50;;
27225;SDS011;14732;51.074;3.788;2023-07-22T11:49:32;3.90;;;1.40;;
27225;SDS011;14732;51.074;3.788;2023-07-22T11:52:00;2.83;;;1.40;;
27225;SDS011;14732;51.074;3.788;2023-07-22T11:54:26;2.22;;;1.27;;
27225;SDS011;14732;51.074;3.788;2023-07-22T11:56:52;2.58;;;1.27;;
27225;SDS011;14732;51.074;3.788;2023-07-22T11:59:35;4.47;;;1.40;;
27225;SDS011;14732;51.074;3.788;2023-07-22T12:02:04;2.80;;;1.48;;
27225;SDS011;14732;51.074;3.788;2023-07-22T12:04:31;3.92;;;1.50;;
27225;SDS011;14732;51.074;3.788;2023-07-22T12:06:58;4.80;;;1.48;;
27225;SDS011;14732;51.074;3.788;2023-07-22T12:09:25;5.68;;;1.30;;
27225;SDS011;14732;51.074;3.788;2023-07-22T12:11:58;3.65;;;1.27;;
27225;SDS011;14732;51.074;3.788;2023-07-22T12:14:32;4.10;;;1.50;;
27225;SDS011;14732;51.074;3.788;2023-07-22T12:16:59;4.88;;;1.33;;
27225;SDS011;14732;51.074;3.788;2023-07-22T12:19:27;3.17;;;1.92;;
27225;SDS011;14732;51.074;3.788;2023-07-22T12:21:53;4.65;;;1.40;;
27225;SDS011;14732;51.074;3.788;2023-07-22T12:24:18;2.47;;;1.23;;
27225;SDS011;14732;51.074;3.788;2023-07-22T12:26:44;4.18;;;1.50;;
27225;SDS011;14732;51.074;3.788;2023-07-22T12:29:10;4.28;;;1.55;;
27225;SDS011;14732;51.074;3.788;2023-07-22T12:31:38;2.67;;;1.13;;
27225;SDS011;14732;51.074;3.788;2023-07-22T12:34:04;6.63;;;1.42;;
27225;SDS011;14732;51.074;3.788;2023-07-22T12:36:31;2.28;;;1.30;;
27225;SDS011;14732;51.074;3.788;2023-07-22T12:39:02;3.53;;;1.25;;
27225;SDS011;14732;51.074;3.788;2023-07-22T12:41:32;4.70;;;1.40;;
27225;SDS011;14732;51.074;3.788;2023-07-22T12:44:07;5.78;;;1.48;;
27225;SDS011;14732;51.074;3.788;2023-07-22T12:46:34;1.73;;;1.10;;
27225;SDS011;14732;51.074;3.788;2023-07-22T12:49:04;4.60;;;1.40;;
27225;SDS011;14732;51.074;3.788;2023-07-22T12:51:33;4.95;;;1.30;;
27225;SDS011;14732;51.074;3.788;2023-07-22T12:54:01;2.97;;;1.50;;
27225;SDS011;14732;51.074;3.788;2023-07-22T12:56:29;4.35;;;1.42;;
27225;SDS011;14732;51.074;3.788;2023-07-22T12:58:59;4.10;;;1.27;;
27225;SDS011;14732;51.074;3.788;2023-07-22T13:01:29;3.10;;;1.40;;
27225;SDS011;14732;51.074;3.788;2023-07-22T13:06:34;1.58;;;1.27;;
27225;SDS011;14732;51.074;3.788;2023-07-22T13:09:03;2.38;;;1.38;;
27225;SDS011;14732;51.074;3.788;2023-07-22T13:11:30;4.25;;;1.50;;
27225;SDS011;14732;51.074;3.788;2023-07-22T13:13:59;3.00;;;1.20;;
27225;SDS011;14732;51.074;3.788;2023-07-22T13:16:25;3.08;;;1.35;;
27225;SDS011;14732;51.074;3.788;2023-07-22T13:18:51;4.28;;;1.60;;
27225;SDS011;14732;51.074;3.788;2023-07-22T13:21:18;3.00;;;1.85;;
27225;SDS011;14732;51.074;3.788;2023-07-22T13:23:47;4.38;;;1.33;;
27225;SDS011;14732;51.074;3.788;2023-07-22T13:26:13;3.87;;;1.37;;
27225;SDS011;14732;51.074;3.788;2023-07-22T13:28:39;2.30;;;1.30;;
27225;SDS011;14732;51.074;3.788;2023-07-22T13:31:05;3.20;;;1.35;;
27225;SDS011;14732;51.074;3.788;2023-07-22T13:33:33;2.85;;;1.30;;
27225;SDS011;14732;51.074;3.788;2023-07-22T13:36:00;4.15;;;1.20;;
27225;SDS011;14732;51.074;3.788;2023-07-22T13:38:34;4.53;;;1.55;;
27225;SDS011;14732;51.074;3.788;2023-07-22T13:41:05;1.83;;;1.23;;
27225;SDS011;14732;51.074;3.788;2023-07-22T13:43:30;2.33;;;1.20;;
27225;SDS011;14732;51.074;3.788;2023-07-22T13:45:56;2.90;;;1.40;;
27225;SDS011;14732;51.074;3.788;2023-07-22T13:48:22;3.72;;;1.50;;
27225;SDS011;14732;51.074;3.788;2023-07-22T13:50:55;3.28;;;1.45;;
27225;SDS011;14732;51.074;3.788;2023-07-22T13:53:22;2.72;;;1.30;;
27225;SDS011;14732;51.074;3.788;2023-07-22T13:55:48;8.60;;;1.30;;
27225;SDS011;14732;51.074;3.788;2023-07-22T13:58:16;6.32;;;1.45;;
27225;SDS011;14732;51.074;3.788;2023-07-22T14:00:44;7.55;;;1.50;;
27225;SDS011;14732;51.074;3.788;2023-07-22T14:03:12;4.93;;;1.20;;
27225;SDS011;14732;51.074;3.788;2023-07-22T14:05:47;2.33;;;1.23;;
27225;SDS011;14732;51.074;3.788;2023-07-22T14:08:13;2.95;;;1.20;;
27225;SDS011;14732;51.074;3.788;2023-07-22T14:10:38;3.25;;;1.10;;
27225;SDS011;14732;51.074;3.788;2023-07-22T14:13:04;5.72;;;1.40;;
27225;SDS011;14732;51.074;3.788;2023-07-22T14:15:31;4.75;;;1.40;;
27225;SDS011;14732;51.074;3.788;2023-07-22T14:17:57;3.58;;;1.40;;
27225;SDS011;14732;51.074;3.788;2023-07-22T14:20:23;6.90;;;1.38;;
27225;SDS011;14732;51.074;3.788;2023-07-22T14:22:49;4.43;;;1.45;;
27225;SDS011;14732;51.074;3.788;2023-07-22T14:25:17;3.50;;;1.60;;
27225;SDS011;14732;51.074;3.788;2023-07-22T14:27:44;4.67;;;1.70;;
27225;SDS011;14732;51.074;3.788;2023-07-22T14:30:11;2.88;;;1.30;;
27225;SDS011;14732;51.074;3.788;2023-07-22T14:32:40;4.45;;;1.63;;
27225;SDS011;14732;51.074;3.788;2023-07-22T14:35:09;2.70;;;1.70;;
27225;SDS011;14732;51.074;3.788;2023-07-22T14:37:36;3.45;;;1.35;;
27225;SDS011;14732;51.074;3.788;2023-07-22T14:42:33;7.10;;;1.60;;
27225;SDS011;14732;51.074;3.788;2023-07-22T14:45:00;2.80;;;1.30;;
27225;SDS011;14732;51.074;3.788;2023-07-22T14:47:27;4.93;;;1.38;;
27225;SDS011;14732;51.074;3.788;2023-07-22T14:49:55;2.88;;;1.60;;
27225;SDS011;14732;51.074;3.788;2023-07-22T14:52:21;4.18;;;1.63;;
27225;SDS011;14732;51.074;3.788;2023-07-22T14:54:48;3.78;;;1.70;;
27225;SDS011;14732;51.074;3.788;2023-07-22T14:57:14;4.50;;;1.40;;
27225;SDS011;14732;51.074;3.788;2023-07-22T14:59:41;3.92;;;1.55;;
27225;SDS011;14732;51.074;3.788;2023-07-22T15:02:07;4.70;;;1.88;;
27225;SDS011;14732;51.074;3.788;2023-07-22T15:04:36;3.80;;;1.40;;
27225;SDS011;14732;51.074;3.788;2023-07-22T15:07:02;2.17;;;1.35;;
27225;SDS011;14732;51.074;3.788;2023-07-22T15:09:28;2.45;;;1.45;;
27225;SDS011;14732;51.074;3.788;2023-07-22T15:11:53;2.63;;;1.60;;
27225;SDS011;14732;51.074;3.788;2023-07-22T15:14:19;5.13;;;2.00;;
27225;SDS011;14732;51.074;3.788;2023-07-22T15:16:45;4.47;;;1.50;;
27225;SDS011;14732;51.074;3.788;2023-07-22T15:19:10;7.05;;;1.88;;